createdAt,value
2022-08-09T00:00:00.095Z,8.63
2022-08-09T00:02:28.713Z,7.90
2022-08-09T00:05:03.592Z,8.73
2022-08-09T00:07:44.628Z,7.53
2022-08-09T00:10:18.173Z,9.47
2022-08-09T00:12:52.531Z,8.57
2022-08-09T00:15:35.412Z,7.73
2022-08-09T00:18:11.588Z,8.40
2022-08-09T00:20:42.099Z,9.10
2022-08-09T00:23:58.330Z,8.60
2022-08-09T00:26:04.884Z,9.17
2022-08-09T00:28:34.493Z,9.07
2022-08-09T00:31:30.339Z,7.93
2022-08-09T00:33:51.998Z,8.17
2022-08-09T00:36:19.847Z,8.80
2022-08-09T00:38:50.666Z,8.13
2022-08-09T00:44:16.063Z,8.50
2022-08-09T00:44:20.669Z,8.40
2022-08-09T00:46:55.890Z,9.07
2022-08-09T00:49:30.312Z,7.97
2022-08-09T00:52:05.045Z,7.93
2022-08-09T00:54:36.366Z,8.63
2022-08-09T00:57:10.302Z,7.87
2022-08-09T00:59:41.638Z,8.57
2022-08-09T01:02:20.093Z,9.10
2022-08-09T01:05:05.430Z,9.40
2022-08-09T01:08:00.855Z,9.30
2022-08-09T01:10:37.606Z,8.43
2022-08-09T01:13:58.850Z,8.93
2022-08-09T01:16:33.121Z,8.47
2022-08-09T01:19:17.059Z,9.67
2022-08-09T01:22:33.074Z,9.27
2022-08-09T01:25:41.535Z,9.20
2022-08-09T01:28:09.991Z,10.10
2022-08-09T01:30:51.930Z,9.67
2022-08-09T01:33:23.893Z,10.03
2022-08-09T01:35:59.229Z,9.87
2022-08-09T01:38:30.046Z,10.17
2022-08-09T01:41:05.762Z,9.90
2022-08-09T01:43:50.453Z,10.07
2022-08-09T01:46:27.437Z,10.07
2022-08-09T01:48:59.810Z,10.13
2022-08-09T01:51:32.353Z,10.80
2022-08-09T01:54:02.018Z,9.53
2022-08-09T01:56:30.657Z,10.23
2022-08-09T01:59:01.614Z,10.30
2022-08-09T02:01:58.145Z,10.93
2022-08-09T02:04:19.864Z,10.43
2022-08-09T02:07:08.013Z,10.33
2022-08-09T02:09:59.339Z,9.70
2022-08-09T02:12:28.979Z,10.30
2022-08-09T02:15:00.178Z,10.53
2022-08-09T02:18:01.329Z,10.13
2022-08-09T02:20:26.208Z,10.93
2022-08-09T02:23:17.136Z,10.93
2022-08-09T02:25:52.434Z,10.73
2022-08-09T02:28:44.905Z,10.90
2022-08-09T02:31:18.094Z,10.97
2022-08-09T02:34:06.812Z,11.13
2022-08-09T02:36:39.227Z,10.90
2022-08-09T02:39:14.542Z,11.60
2022-08-09T02:42:17.830Z,10.77
2022-08-09T02:44:50.369Z,10.30
2022-08-09T02:47:19.327Z,10.50
2022-08-09T02:50:03.381Z,10.97
2022-08-09T02:52:55.442Z,10.07
2022-08-09T02:55:57.777Z,11.07
2022-08-09T02:58:36.849Z,10.33
2022-08-09T03:01:07.766Z,10.97
2022-08-09T03:04:17.597Z,11.10
2022-08-09T03:06:27.411Z,11.53
2022-08-09T03:08:55.630Z,10.27
2022-08-09T03:11:29.873Z,10.70
2022-08-09T03:14:11.941Z,10.97
2022-08-09T03:16:41.999Z,10.73
2022-08-09T03:19:58.204Z,10.67
2022-08-09T03:22:04.666Z,9.83
2022-08-09T03:24:52.187Z,10.53
2022-08-09T03:27:21.480Z,10.30
2022-08-09T03:29:57.050Z,10.63
2022-08-09T03:32:30.956Z,10.40
2022-08-09T03:34:59.013Z,12.17
2022-08-09T03:37:56.492Z,11.40
2022-08-09T03:40:13.761Z,9.93
2022-08-09T03:42:45.324Z,10.43
2022-08-09T03:45:13.872Z,10.60
2022-08-09T03:47:46.804Z,10.87
2022-08-09T03:50:18.700Z,11.27
2022-08-09T03:52:57.823Z,11.87
2022-08-09T03:55:26.608Z,11.80
2022-08-09T03:58:03.480Z,11.43
2022-08-09T04:00:38.994Z,10.47
2022-08-09T04:03:07.710Z,10.67
2022-08-09T04:05:40.443Z,11.57
2022-08-09T04:08:07.409Z,11.47
2022-08-09T04:10:35.557Z,11.50
2022-08-09T04:13:09.500Z,13.20
2022-08-09T04:16:18.756Z,11.33
2022-08-09T04:18:26.096Z,10.33
2022-08-09T04:20:54.946Z,11.70
2022-08-09T04:23:24.963Z,11.07
2022-08-09T04:25:54.277Z,11.43
2022-08-09T04:28:33.688Z,11.17
2022-08-09T04:31:08.243Z,11.00
2022-08-09T04:33:53.113Z,11.20
2022-08-09T04:36:25.759Z,10.40
2022-08-09T04:38:54.206Z,11.73
2022-08-09T04:41:23.745Z,10.30
2022-08-09T04:44:05.253Z,10.40
2022-08-09T04:46:57.655Z,11.37
2022-08-09T04:49:22.297Z,13.30
2022-08-09T04:52:07.351Z,12.87
2022-08-09T04:54:34.523Z,12.70
2022-08-09T04:57:03.765Z,11.27
2022-08-09T04:59:31.311Z,11.90
2022-08-09T05:01:58.461Z,11.07
2022-08-09T05:04:31.191Z,12.13
2022-08-09T05:06:58.609Z,12.33
2022-08-09T05:09:42.160Z,12.80
2022-08-09T05:12:12.672Z,13.07
2022-08-09T05:14:41.126Z,13.17
2022-08-09T05:18:36.715Z,12.30
2022-08-09T05:19:57.125Z,12.27
2022-08-09T05:22:35.924Z,11.47
2022-08-09T05:25:12.224Z,11.90
2022-08-09T05:27:46.403Z,12.73
2022-08-09T05:30:17.593Z,10.67
2022-08-09T05:32:50.976Z,11.60
2022-08-09T05:35:22.070Z,11.73
2022-08-09T05:37:50.145Z,11.97
2022-08-09T05:40:18.357Z,12.43
2022-08-09T05:42:45.537Z,13.03
2022-08-09T05:45:14.704Z,12.07
2022-08-09T05:47:52.181Z,12.63
2022-08-09T05:50:44.116Z,11.30
2022-08-09T05:53:11.580Z,11.70
2022-08-09T05:55:48.284Z,12.00
2022-08-09T05:58:19.880Z,11.97
2022-08-09T06:00:46.681Z,10.57
2022-08-09T06:03:19.965Z,12.10
2022-08-09T06:05:58.178Z,10.67
2022-08-09T06:08:33.149Z,9.65
2022-08-09T06:11:00.900Z,9.07
2022-08-09T06:13:28.490Z,7.70
2022-08-09T06:16:01.698Z,6.95
2022-08-09T06:18:32.412Z,6.43
2022-08-09T06:20:59.828Z,6.32
2022-08-09T06:23:55.297Z,6.78
2022-08-09T06:26:21.318Z,5.90
2022-08-09T06:28:59.631Z,5.90
2022-08-09T06:31:39.205Z,5.93
2022-08-09T06:34:07.564Z,6.47
2022-08-09T06:36:34.543Z,6.68
2022-08-09T06:39:02.619Z,5.80
2022-08-09T06:42:08.450Z,6.10
2022-08-09T06:44:22.713Z,5.45
2022-08-09T06:46:55.239Z,4.75
2022-08-09T06:49:44.769Z,4.68
2022-08-09T06:52:10.832Z,4.90
2022-08-09T06:54:38.942Z,4.38
2022-08-09T06:57:08.350Z,4.53
2022-08-09T07:00:52.110Z,5.03
2022-08-09T07:02:22.185Z,4.65
2022-08-09T07:04:56.243Z,4.20
2022-08-09T07:07:58.779Z,3.90
2022-08-09T07:10:22.654Z,4.05
2022-08-09T07:12:57.363Z,4.63
2022-08-09T07:16:35.132Z,4.88
2022-08-09T07:18:11.777Z,4.57
2022-08-09T07:20:43.424Z,4.25
2022-08-09T07:23:18.633Z,3.85
2022-08-09T07:25:47.422Z,3.55
2022-08-09T07:28:19.277Z,4.00
2022-08-09T07:30:54.120Z,3.83
2022-08-09T07:33:22.031Z,3.60
2022-08-09T07:35:54.274Z,3.17
2022-08-09T07:38:23.269Z,3.25
2022-08-09T07:41:08.266Z,3.13
2022-08-09T07:43:41.395Z,2.60
2022-08-09T07:46:27.767Z,2.65
2022-08-09T07:48:59.500Z,2.75
2022-08-09T07:52:05.618Z,2.97
2022-08-09T07:54:15.260Z,2.35
2022-08-09T07:56:49.523Z,1.80
2022-08-09T07:59:33.749Z,2.08
2022-08-09T08:02:08.870Z,1.83
2022-08-09T08:04:37.257Z,2.08
2022-08-09T08:07:15.319Z,1.77
2022-08-09T08:09:55.047Z,1.73
2022-08-09T08:12:34.506Z,2.00
2022-08-09T08:15:01.690Z,1.70
2022-08-09T08:17:52.544Z,1.80
2022-08-09T08:20:15.454Z,2.30
2022-08-09T08:22:42.967Z,1.67
2022-08-09T08:25:13.640Z,1.70
2022-08-09T08:27:42.886Z,2.00
2022-08-09T08:30:11.385Z,1.90
2022-08-09T08:32:52.921Z,2.15
2022-08-09T08:35:22.344Z,1.50
2022-08-09T08:37:59.443Z,1.40
2022-08-09T08:40:29.644Z,1.25
2022-08-09T08:42:58.853Z,1.10
2022-08-09T08:45:43.309Z,1.10
2022-08-09T08:48:20.213Z,0.82
2022-08-09T08:50:49.383Z,0.95
2022-08-09T08:53:21.819Z,0.98
2022-08-09T08:55:49.176Z,1.27
2022-08-09T08:58:23.985Z,1.17
2022-08-09T09:00:57.002Z,1.52
2022-08-09T09:03:33.134Z,1.13
2022-08-09T09:06:05.752Z,1.38
2022-08-09T09:08:40.499Z,1.50
2022-08-09T09:11:13.692Z,1.20
2022-08-09T09:13:57.352Z,1.25
2022-08-09T09:16:35.557Z,1.40
2022-08-09T09:19:40.204Z,1.42
2022-08-09T09:22:03.784Z,1.23
2022-08-09T09:24:37.190Z,0.90
2022-08-09T09:27:07.095Z,1.05
2022-08-09T09:30:11.465Z,1.20
2022-08-09T09:32:34.744Z,1.10
2022-08-09T09:35:15.855Z,0.80
2022-08-09T09:37:46.019Z,0.95
2022-08-09T09:40:13.204Z,0.80
2022-08-09T09:42:42.960Z,0.82
2022-08-09T09:45:14.447Z,0.85
2022-08-09T09:47:56.735Z,0.90
2022-08-09T09:50:49.712Z,0.85
2022-08-09T09:53:57.318Z,0.90
2022-08-09T09:56:31.251Z,0.82
2022-08-09T09:58:58.539Z,0.93
2022-08-09T10:01:37.847Z,0.70
2022-08-09T10:04:12.917Z,0.95
2022-08-09T10:06:46.985Z,0.85
2022-08-09T10:09:22.134Z,0.80
2022-08-09T10:12:14.599Z,0.68
2022-08-09T10:14:49.463Z,0.50
2022-08-09T10:17:39.531Z,0.60
2022-08-09T10:20:27.096Z,0.70
2022-08-09T10:23:17.396Z,0.90
2022-08-09T10:26:07.794Z,0.70
2022-08-09T10:28:38.270Z,0.80
2022-08-09T10:34:09.658Z,0.80
2022-08-09T10:36:42.241Z,1.00
2022-08-09T10:39:13.832Z,0.68
2022-08-09T10:41:42.160Z,0.70
2022-08-09T10:44:10.492Z,0.93
2022-08-09T10:47:20.400Z,0.82
2022-08-09T10:50:05.685Z,0.70
2022-08-09T10:53:00.576Z,0.57
2022-08-09T10:55:49.275Z,0.73
2022-08-09T10:58:33.741Z,1.10
2022-08-09T11:03:06.578Z,0.98
2022-08-09T11:04:30.235Z,0.75
2022-08-09T11:06:59.783Z,0.63
2022-08-09T11:09:49.803Z,1.00
2022-08-09T11:12:26.640Z,0.80
2022-08-09T11:15:24.363Z,0.80
2022-08-09T11:18:02.882Z,0.80
2022-08-09T11:20:43.268Z,0.80
2022-08-09T11:23:11.135Z,0.93
2022-08-09T11:25:47.764Z,1.00
2022-08-09T11:28:34.663Z,0.90
2022-08-09T11:31:43.067Z,0.75
2022-08-09T11:34:27.662Z,0.80
2022-08-09T11:36:55.912Z,0.70
2022-08-09T11:39:24.288Z,0.70
2022-08-09T11:41:54.593Z,0.80
2022-08-09T11:44:44.878Z,1.15
2022-08-09T11:47:14.352Z,0.93
2022-08-09T11:50:53.961Z,0.88
2022-08-09T11:53:20.886Z,0.95
2022-08-09T11:55:52.751Z,0.85
2022-08-09T11:58:32.953Z,0.73
2022-08-09T12:01:15.620Z,1.00
2022-08-09T12:04:04.029Z,0.80
2022-08-09T12:06:35.292Z,0.75
2022-08-09T12:09:15.064Z,0.80
2022-08-09T12:12:03.530Z,0.80
2022-08-09T12:15:03.625Z,0.88
2022-08-09T12:17:33.876Z,0.70
2022-08-09T12:20:16.505Z,0.80
2022-08-09T12:22:47.910Z,0.70
2022-08-09T12:25:36.375Z,0.60
2022-08-09T12:29:12.310Z,0.80
2022-08-09T12:31:11.315Z,0.90
2022-08-09T12:34:00.784Z,0.82
2022-08-09T12:36:31.744Z,0.65
2022-08-09T12:39:00.725Z,0.68
2022-08-09T12:41:33.670Z,0.63
2022-08-09T12:44:07.885Z,0.80
2022-08-09T12:46:39.645Z,0.70
2022-08-09T12:49:08.792Z,0.60
2022-08-09T12:52:01.474Z,0.75
2022-08-09T12:54:23.886Z,0.70
2022-08-09T12:56:54.376Z,0.82
2022-08-09T12:59:24.993Z,0.70
2022-08-09T13:02:11.696Z,0.65
2022-08-09T13:04:42.017Z,0.80
2022-08-09T13:07:16.705Z,0.60
2022-08-09T13:09:52.641Z,1.23
2022-08-09T13:12:23.267Z,0.68
2022-08-09T13:14:54.252Z,0.73
2022-08-09T13:18:03.288Z,0.77
2022-08-09T13:20:18.717Z,0.75
2022-08-09T13:23:05.606Z,0.70
2022-08-09T13:25:53.330Z,0.70
2022-08-09T13:28:34.066Z,0.70
2022-08-09T13:32:14.249Z,1.02
2022-08-09T13:33:54.960Z,0.70
2022-08-09T13:36:37.465Z,1.00
2022-08-09T13:41:56.661Z,0.80
2022-08-09T13:42:12.194Z,1.10
2022-08-09T13:44:44.050Z,0.70
2022-08-09T13:47:33.151Z,1.20
2022-08-09T13:50:08.679Z,0.90
2022-08-09T13:52:40.510Z,0.75
2022-08-09T13:55:13.481Z,0.80
2022-08-09T13:57:46.952Z,0.80
2022-08-09T14:00:23.118Z,0.90
2022-08-09T14:03:03.441Z,1.20
2022-08-09T14:05:59.858Z,0.80
2022-08-09T14:08:30.309Z,1.00
2022-08-09T14:10:57.981Z,0.70
2022-08-09T14:14:15.175Z,0.80
2022-08-09T14:16:19.644Z,0.77
2022-08-09T14:18:57.328Z,0.73
2022-08-09T14:21:29.092Z,0.70
2022-08-09T14:23:57.476Z,0.77
2022-08-09T14:26:30.255Z,1.25
2022-08-09T14:29:08.211Z,0.80
2022-08-09T14:31:54.115Z,0.77
2022-08-09T14:34:32.261Z,0.85
2022-08-09T14:37:06.164Z,0.73
2022-08-09T14:39:45.205Z,1.38
2022-08-09T14:42:30.122Z,0.70
2022-08-09T14:46:45.901Z,0.73
2022-08-09T14:47:57.979Z,0.70
2022-08-09T14:50:32.358Z,0.88
2022-08-09T14:53:10.960Z,1.05
2022-08-09T14:55:42.044Z,0.95
2022-08-09T14:58:11.305Z,1.20
2022-08-09T15:00:42.304Z,0.75
2022-08-09T15:03:10.525Z,0.90
2022-08-09T15:05:38.685Z,0.88
2022-08-09T15:08:06.862Z,0.60
2022-08-09T15:10:37.852Z,0.88
2022-08-09T15:13:08.893Z,0.73
2022-08-09T15:15:39.197Z,0.90
2022-08-09T15:18:08.338Z,0.80
2022-08-09T15:21:57.607Z,0.75
2022-08-09T15:24:01.003Z,0.80
2022-08-09T15:26:19.180Z,1.00
2022-08-09T15:28:55.462Z,0.82
2022-08-09T15:31:22.400Z,0.98
2022-08-09T15:34:31.551Z,0.88
2022-08-09T15:36:54.345Z,0.80
2022-08-09T15:39:21.194Z,0.82
2022-08-09T15:41:50.563Z,1.00
2022-08-09T15:44:19.740Z,0.90
2022-08-09T15:46:49.946Z,0.80
2022-08-09T15:49:21.968Z,0.80
2022-08-09T15:52:03.907Z,0.75
2022-08-09T15:54:44.854Z,0.90
2022-08-09T15:57:34.137Z,0.93
2022-08-09T16:00:14.283Z,0.90
2022-08-09T16:02:48.188Z,0.93
2022-08-09T16:05:22.355Z,1.17
2022-08-09T16:07:50.473Z,0.85
2022-08-09T16:10:38.910Z,0.93
2022-08-09T16:13:21.075Z,0.82
2022-08-09T16:16:10.350Z,1.30
2022-08-09T16:18:44.957Z,1.10
2022-08-09T16:21:17.381Z,1.00
2022-08-09T16:23:54.820Z,1.00
2022-08-09T16:26:34.142Z,1.00
2022-08-09T16:29:12.892Z,0.73
2022-08-09T16:32:17.935Z,0.85
2022-08-09T16:34:55.229Z,1.10
2022-08-09T16:37:53.783Z,0.93
2022-08-09T16:40:12.467Z,0.80
2022-08-09T16:42:45.130Z,1.25
2022-08-09T16:45:13.807Z,1.10
2022-08-09T16:48:43.172Z,1.13
2022-08-09T16:50:33.763Z,1.90
2022-08-09T16:53:02.636Z,2.08
2022-08-09T16:55:31.397Z,1.40
2022-08-09T16:58:17.089Z,0.90
2022-08-09T17:00:44.049Z,1.33
2022-08-09T17:03:22.071Z,1.70
2022-08-09T17:06:06.778Z,1.38
2022-08-09T17:08:58.840Z,1.00
2022-08-09T17:11:32.907Z,1.30
2022-08-09T17:14:08.831Z,0.70
2022-08-09T17:16:54.032Z,1.02
2022-08-09T17:19:21.922Z,1.20
2022-08-09T17:21:55.598Z,1.00
2022-08-09T17:24:30.253Z,1.00
2022-08-09T17:26:57.184Z,0.98
2022-08-09T17:29:25.487Z,1.13
2022-08-09T17:32:01.814Z,1.10
2022-08-09T17:35:07.528Z,1.15
2022-08-09T17:37:19.741Z,1.38
2022-08-09T17:39:52.972Z,0.90
2022-08-09T17:42:40.983Z,1.10
2022-08-09T17:45:15.985Z,1.10
2022-08-09T17:48:01.830Z,1.77
2022-08-09T17:50:37.109Z,1.80
2022-08-09T17:53:19.192Z,1.15
2022-08-09T17:55:48.781Z,1.55
2022-08-09T17:58:18.922Z,0.93
2022-08-09T18:00:48.038Z,1.00
2022-08-09T18:03:17.689Z,0.95
2022-08-09T18:05:45.255Z,0.95
2022-08-09T18:08:21.878Z,0.95
2022-08-09T18:11:01.036Z,1.17
2022-08-09T18:13:43.409Z,1.60
2022-08-09T18:16:16.382Z,1.00
2022-08-09T18:18:49.141Z,1.20
2022-08-09T18:21:22.832Z,1.00
2022-08-09T18:24:11.587Z,1.20
2022-08-09T18:26:46.386Z,1.10
2022-08-09T18:30:35.189Z,1.10
2022-08-09T18:32:02.871Z,1.00
2022-08-09T18:34:31.661Z,1.10
2022-08-09T18:36:59.051Z,1.00
2022-08-09T18:39:32.700Z,1.02
2022-08-09T18:42:05.394Z,1.15
2022-08-09T18:44:35.883Z,1.20
2022-08-09T18:47:06.316Z,1.20
2022-08-09T18:49:41.644Z,2.28
2022-08-09T18:52:15.745Z,1.15
2022-08-09T18:54:52.097Z,1.30
2022-08-09T18:57:21.922Z,1.42
2022-08-09T18:59:52.016Z,1.38
2022-08-09T19:02:31.722Z,1.48
2022-08-09T19:05:20.023Z,1.20
2022-08-09T19:08:03.678Z,1.27
2022-08-09T19:10:39.370Z,1.30
2022-08-09T19:13:22.858Z,1.60
2022-08-09T19:16:01.257Z,1.52
2022-08-09T19:18:35.129Z,1.50
2022-08-09T19:21:10.678Z,1.35
2022-08-09T19:24:32.046Z,1.60
2022-08-09T19:26:32.354Z,1.70
2022-08-09T19:29:09.667Z,1.70
2022-08-09T19:31:49.419Z,1.70
2022-08-09T19:34:23.005Z,1.38
2022-08-09T19:36:55.841Z,1.92
2022-08-09T19:39:29.086Z,1.55
2022-08-09T19:42:15.300Z,1.65
2022-08-09T19:44:49.379Z,1.40
2022-08-09T19:47:23.637Z,1.55
2022-08-09T19:50:10.430Z,1.50
2022-08-09T19:52:49.755Z,1.50
2022-08-09T19:55:19.711Z,1.48
2022-08-09T19:57:57.817Z,1.50
2022-08-09T20:00:24.597Z,1.50
2022-08-09T20:04:18.235Z,1.42
2022-08-09T20:05:46.427Z,1.60
2022-08-09T20:08:33.204Z,1.60
2022-08-09T20:11:04.442Z,1.50
2022-08-09T20:13:37.129Z,1.70
2022-08-09T20:16:35.314Z,1.52
2022-08-09T20:19:41.829Z,1.50
2022-08-09T20:21:56.661Z,1.38
2022-08-09T20:24:29.899Z,1.63
2022-08-09T20:27:01.570Z,1.80
2022-08-09T20:29:32.686Z,2.00
2022-08-09T20:32:42.075Z,1.50
2022-08-09T20:34:50.904Z,1.92
2022-08-09T20:37:21.422Z,1.52
2022-08-09T20:40:17.191Z,1.45
2022-08-09T20:42:37.938Z,1.60
2022-08-09T20:45:59.757Z,1.52
2022-08-09T20:47:52.607Z,1.65
2022-08-09T20:50:47.437Z,1.40
2022-08-09T20:53:18.799Z,1.70
2022-08-09T20:56:00.711Z,2.00
2022-08-09T20:58:32.792Z,1.63
2022-08-09T21:01:13.623Z,1.73
2022-08-09T21:05:48.545Z,1.70
2022-08-09T21:06:35.785Z,1.90
2022-08-09T21:09:04.396Z,1.88
2022-08-09T21:14:26.812Z,1.85
2022-08-09T21:16:58.133Z,1.88
2022-08-09T21:20:19.480Z,2.22
2022-08-09T21:22:36.244Z,1.80
2022-08-09T21:25:20.895Z,1.88
2022-08-09T21:28:01.191Z,1.55
2022-08-09T21:30:28.135Z,1.92
2022-08-09T21:32:54.879Z,2.00
2022-08-09T21:35:24.100Z,1.83
2022-08-09T21:37:59.204Z,1.70
2022-08-09T21:40:30.119Z,1.40
2022-08-09T21:42:59.043Z,1.60
2022-08-09T21:45:26.563Z,1.70
2022-08-09T21:47:53.814Z,1.52
2022-08-09T21:50:35.108Z,1.92
2022-08-09T21:53:24.031Z,2.00
2022-08-09T21:55:54.513Z,1.98
2022-08-09T21:58:21.259Z,2.10
2022-08-09T22:00:57.823Z,2.22
2022-08-09T22:03:25.816Z,1.85
2022-08-09T22:05:54.254Z,2.10
2022-08-09T22:08:24.494Z,2.08
2022-08-09T22:11:04.922Z,2.10
2022-08-09T22:13:42.280Z,2.28
2022-08-09T22:16:10.922Z,2.35
2022-08-09T22:18:53.702Z,2.20
2022-08-09T22:21:27.248Z,2.33
2022-08-09T22:24:00.174Z,2.00
2022-08-09T22:26:35.296Z,2.42
2022-08-09T22:29:09.222Z,2.28
2022-08-09T22:31:37.733Z,2.78
2022-08-09T22:34:14.469Z,2.45
2022-08-09T22:36:45.864Z,2.67
2022-08-09T22:39:38.691Z,2.38
2022-08-09T22:42:04.088Z,2.45
2022-08-09T22:44:45.626Z,2.40
2022-08-09T22:48:15.792Z,2.53
2022-08-09T22:49:59.353Z,2.60
2022-08-09T22:52:26.794Z,2.45
2022-08-09T22:54:54.399Z,2.80
2022-08-09T22:57:22.633Z,2.33
2022-08-09T22:59:59.467Z,2.40
2022-08-09T23:02:27.405Z,2.50
2022-08-09T23:04:57.009Z,2.70
2022-08-09T23:08:29.111Z,2.43
2022-08-09T23:10:32.549Z,2.20
2022-08-09T23:12:59.911Z,2.77
2022-08-09T23:15:28.606Z,2.53
2022-08-09T23:17:55.838Z,2.90
2022-08-09T23:20:23.387Z,2.90
2022-08-09T23:22:50.162Z,2.72
2022-08-09T23:25:16.886Z,3.00
2022-08-09T23:27:59.699Z,2.90
2022-08-09T23:30:30.836Z,2.90
2022-08-09T23:32:57.643Z,2.70
2022-08-09T23:35:24.507Z,3.10
2022-08-09T23:37:51.235Z,3.03
2022-08-09T23:40:18.074Z,3.73
2022-08-09T23:42:44.859Z,3.17
2022-08-09T23:45:36.414Z,3.07
2022-08-09T23:47:58.616Z,3.40
2022-08-09T23:50:25.433Z,2.97
2022-08-09T23:52:52.438Z,2.90
2022-08-09T23:55:19.329Z,3.23
2022-08-09T23:58:08.023Z,3.10
